Flight Track Log - Related Links

Times and Time Zones

All times are in EDT time to prevent confusion due to time zone crossing. See the ACA472 flight status page for this flight to view local times or setup timezone preferences in your user account.

Time Position Orientation Groundspeed Altitude Reporting Facility
EDT Latitude Longitude Course Direction KTS MPH feet Rate Location/Type
Tue 12:39:58 AM 43.6667 -79.6333 55° Northeast 260 299 700  Level Toronto Center
Tue 12:40:58 AM 43.6500 -79.6833 245° Southwest 150 173 3,700 2,200 Climbing Toronto Center
Tue 12:41:58 AM 43.6000 -79.6500 154° Southeast 200 230 5,100 1,900 Climbing Toronto Center
Tue 12:42:58 AM 43.6167 -79.5667 75° East 290 334 7,500 2,700 Climbing Toronto Center
Tue 12:43:00 AM 43.8494 -79.2409 58° Northeast  Level Estimated
Tue 12:43:58 AM 43.6333 -79.4333 80° East 320 368 10,500  Level Toronto Center
Tue 12:44:00 AM 43.9065 -79.1105 59° Northeast  Level Estimated
Tue 12:44:58 AM 43.6667 -79.3167 68° East 350 403 13,000  Level Toronto Center
Tue 12:45:00 AM 43.9170 -78.9660 55° Northeast  Level FlightAware Approximate
Tue 12:45:58 AM 43.6833 -79.1667 81° East 370 426 16,000  Level Toronto Center
Tue 12:46:58 AM 43.7167 -79.0333 71° East 380 437 18,900 2,000 Climbing Toronto Center
Tue 12:47:58 AM 43.7500 -78.8667 74° East 400 460 20,000 1,600 Climbing Toronto Center
Tue 12:48:58 AM 43.7833 -78.7167 73° East 440 506 22,100 2,200 Climbing Toronto Center
Tue 12:49:58 AM 43.8333 -78.5667 65° Northeast 440 506 24,400 2,250 Climbing Toronto Center
Tue 12:50:58 AM 43.8833 -78.4333 62° Northeast 440 506 26,600 1,300 Climbing Toronto Center
Tue 12:51:58 AM 43.9667 -78.2833 52° Northeast 440 506 27,000 200 Climbing Toronto Center
Tue 12:52:58 AM 44.0333 -78.1500 55° Northeast 440 506 27,000  Level Toronto Center
Tue 12:53:58 AM 44.1000 -78.0000 58° Northeast 440 506 27,000  Level Toronto Center
Tue 12:54:44 AM 44.1500 -77.9333 44° Northeast 430 495 27,000  Level Montreal Center
Tue 12:55:44 AM 44.2167 -77.7833 58° Northeast 440 506 27,000  Level Montreal Center
Tue 12:56:44 AM 44.3000 -77.6500 49° Northeast 430 495 27,000  Level Montreal Center
Tue 12:57:44 AM 44.3667 -77.5167 55° Northeast 430 495 27,000  Level Montreal Center
Tue 12:58:44 AM 44.4333 -77.3667 58° Northeast 440 506 27,000  Level Montreal Center
Tue 12:59:44 AM 44.5000 -77.2333 55° Northeast 440 506 27,000 -850 Level Montreal Center
Tue 01:00:44 AM 44.5667 -77.1000 55° Northeast 430 495 25,300 -2,000 Descending Montreal Center
Tue 01:01:44 AM 44.6333 -76.9500 58° Northeast 430 495 23,000 -2,000 Descending Montreal Center
Tue 01:02:44 AM 44.7000 -76.8167 55° Northeast 420 483 21,300 -1,750 Descending Montreal Center
Tue 01:03:44 AM 44.7667 -76.7000 51° Northeast 410 472 19,500 -1,600 Descending Montreal Center
Tue 01:04:44 AM 44.8333 -76.5833 51° Northeast 390 449 18,100 -1,750 Descending Montreal Center
Tue 01:05:44 AM 44.8833 -76.4333 65° Northeast 370 426 16,000 -1,700 Descending Montreal Center
Tue 01:06:44 AM 44.9167 -76.3000 71° East 370 426 14,700 -1,400 Descending Montreal Center
Tue 01:07:44 AM 44.9500 -76.1833 68° East 340 391 13,200 -1,550 Descending Montreal Center
Tue 01:08:44 AM 44.9833 -76.0667 68° East 340 391 11,600 -1,550 Descending Montreal Center
Tue 01:09:44 AM 45.0000 -75.9500 79° East 330 380 10,100 -1,550 Descending Montreal Center
Tue 01:10:44 AM 45.0333 -75.8000 72° East 320 368 8,500 -1,600 Descending Montreal Center
Tue 01:11:44 AM 45.0667 -75.7000 65° Northeast 310 357 6,900 -1,400 Descending Montreal Center
Tue 01:12:44 AM 45.1000 -75.5833 68° East 290 334 5,700 -950 Descending Montreal Center
Tue 01:13:44 AM 45.1167 -75.5000 74° East 250 288 5,000 -850 Descending Montreal Center
Tue 01:14:44 AM 45.1833 -75.4500 28° Northeast 210 242 4,000 -950 Descending Montreal Center
Tue 01:15:44 AM 45.2167 -75.5000 313° West 180 207 3,100 -900 Descending Montreal Center
Tue 01:16:44 AM 45.2333 -75.5333 305° West 170 196 2,200 -850 Descending Montreal Center
Tue 01:17:44 AM 45.2667 -75.5833 313° West 150 173 1,400 -800 Descending Montreal Center
Tue 01:18:44 AM 45.2833 -75.6333 295° West 140 161 600 -800 Descending Montreal Center

Login

Don't have an account? Register now (free) for customized features, flight alerts, and more!